sensor_id;sensor_type;location;lat;lon;timestamp;pressure;altitude;pressure_sealevel;temperature
77414;BMP280;66486;49.992;19.164;2023-03-14T00:00:26;97363.47;;;8.88
77414;BMP280;66486;49.992;19.164;2023-03-14T00:03:11;97362.19;;;9.14
77414;BMP280;66486;49.992;19.164;2023-03-14T00:05:38;97371.06;;;9.23
77414;BMP280;66486;49.992;19.164;2023-03-14T00:08:04;97358.81;;;9.01
77414;BMP280;66486;49.992;19.164;2023-03-14T00:10:30;97358.00;;;8.91
77414;BMP280;66486;49.992;19.164;2023-03-14T00:12:56;97354.47;;;8.94
77414;BMP280;66486;49.992;19.164;2023-03-14T00:15:22;97335.72;;;8.94
77414;BMP280;66486;49.992;19.164;2023-03-14T00:17:48;97329.91;;;8.96
77414;BMP280;66486;49.992;19.164;2023-03-14T00:20:14;97319.72;;;8.91
77414;BMP280;66486;49.992;19.164;2023-03-14T00:22:41;97311.53;;;8.17
77414;BMP280;66486;49.992;19.164;2023-03-14T00:25:09;97315.25;;;8.06
77414;BMP280;66486;49.992;19.164;2023-03-14T00:27:36;97297.34;;;7.94
77414;BMP280;66486;49.992;19.164;2023-03-14T00:30:03;97297.06;;;8.14
77414;BMP280;66486;49.992;19.164;2023-03-14T00:32:29;97285.78;;;8.32
77414;BMP280;66486;49.992;19.164;2023-03-14T00:34:55;97275.13;;;8.41
77414;BMP280;66486;49.992;19.164;2023-03-14T00:37:21;97257.50;;;8.31
77414;BMP280;66486;49.992;19.164;2023-03-14T00:39:47;97251.38;;;8.30
77414;BMP280;66486;49.992;19.164;2023-03-14T00:42:13;97239.97;;;8.17
77414;BMP280;66486;49.992;19.164;2023-03-14T00:44:40;97230.25;;;8.32
77414;BMP280;66486;49.992;19.164;2023-03-14T00:47:06;97218.00;;;8.44
77414;BMP280;66486;49.992;19.164;2023-03-14T00:49:32;97213.38;;;8.23
77414;BMP280;66486;49.992;19.164;2023-03-14T00:51:58;97210.94;;;8.16
77414;BMP280;66486;49.992;19.164;2023-03-14T00:54:24;97210.00;;;8.09
77414;BMP280;66486;49.992;19.164;2023-03-14T00:56:50;97212.75;;;8.19
77414;BMP280;66486;49.992;19.164;2023-03-14T00:59:16;97215.22;;;7.91
77414;BMP280;66486;49.992;19.164;2023-03-14T01:01:43;97197.31;;;7.88
77414;BMP280;66486;49.992;19.164;2023-03-14T01:04:10;97189.56;;;7.56
77414;BMP280;66486;49.992;19.164;2023-03-14T01:06:35;97195.91;;;7.62
77414;BMP280;66486;49.992;19.164;2023-03-14T01:09:02;97207.03;;;7.10
77414;BMP280;66486;49.992;19.164;2023-03-14T01:11:30;97217.81;;;7.44
77414;BMP280;66486;49.992;19.164;2023-03-14T01:13:57;97222.22;;;7.26
77414;BMP280;66486;49.992;19.164;2023-03-14T01:16:25;97204.03;;;6.95
77414;BMP280;66486;49.992;19.164;2023-03-14T01:18:52;97198.16;;;7.26
77414;BMP280;66486;49.992;19.164;2023-03-14T01:21:21;97198.69;;;7.33
77414;BMP280;66486;49.992;19.164;2023-03-14T01:23:49;97194.00;;;7.00
77414;BMP280;66486;49.992;19.164;2023-03-14T01:26:17;97187.56;;;7.10
77414;BMP280;66486;49.992;19.164;2023-03-14T01:28:47;97182.97;;;6.97
77414;BMP280;66486;49.992;19.164;2023-03-14T01:31:13;97179.66;;;7.19
77414;BMP280;66486;49.992;19.164;2023-03-14T01:33:40;97178.47;;;7.20
77414;BMP280;66486;49.992;19.164;2023-03-14T01:36:07;97163.19;;;7.33
77414;BMP280;66486;49.992;19.164;2023-03-14T01:38:35;97173.56;;;7.31
77414;BMP280;66486;49.992;19.164;2023-03-14T01:41:01;97170.34;;;7.36
77414;BMP280;66486;49.992;19.164;2023-03-14T01:43:28;97157.41;;;6.96
77414;BMP280;66486;49.992;19.164;2023-03-14T01:48:39;97128.56;;;6.25
77414;BMP280;66486;49.992;19.164;2023-03-14T01:51:13;97118.81;;;6.18
77414;BMP280;66486;49.992;19.164;2023-03-14T01:53:43;97109.66;;;6.19
77414;BMP280;66486;49.992;19.164;2023-03-14T01:56:12;97101.25;;;6.33
77414;BMP280;66486;49.992;19.164;2023-03-14T01:58:41;97093.13;;;6.24
77414;BMP280;66486;49.992;19.164;2023-03-14T02:01:08;97078.47;;;6.29
77414;BMP280;66486;49.992;19.164;2023-03-14T02:03:41;97073.66;;;6.24
77414;BMP280;66486;49.992;19.164;2023-03-14T02:06:11;97070.25;;;6.11
77414;BMP280;66486;49.992;19.164;2023-03-14T02:08:38;97072.81;;;5.86
77414;BMP280;66486;49.992;19.164;2023-03-14T02:11:05;97072.28;;;5.91
77414;BMP280;66486;49.992;19.164;2023-03-14T02:13:33;97080.19;;;5.94
77414;BMP280;66486;49.992;19.164;2023-03-14T02:15:58;97080.28;;;6.19
77414;BMP280;66486;49.992;19.164;2023-03-14T02:18:25;97087.50;;;6.60
77414;BMP280;66486;49.992;19.164;2023-03-14T02:26:37;97071.78;;;8.34
77414;BMP280;66486;49.992;19.164;2023-03-14T02:29:04;97059.31;;;8.89
77414;BMP280;66486;49.992;19.164;2023-03-14T02:31:30;97056.72;;;9.16
77414;BMP280;66486;49.992;19.164;2023-03-14T02:33:57;97063.72;;;9.50
77414;BMP280;66486;49.992;19.164;2023-03-14T02:36:23;97063.56;;;9.53
77414;BMP280;66486;49.992;19.164;2023-03-14T02:38:55;97053.75;;;9.77
77414;BMP280;66486;49.992;19.164;2023-03-14T02:41:22;97041.00;;;9.96
77414;BMP280;66486;49.992;19.164;2023-03-14T02:43:49;97045.69;;;10.28
77414;BMP280;66486;49.992;19.164;2023-03-14T02:46:20;97049.78;;;10.47
77414;BMP280;66486;49.992;19.164;2023-03-14T02:48:59;97059.16;;;10.85
77414;BMP280;66486;49.992;19.164;2023-03-14T02:51:27;97049.16;;;11.09
77414;BMP280;66486;49.992;19.164;2023-03-14T02:53:54;97060.94;;;11.26
77414;BMP280;66486;49.992;19.164;2023-03-14T02:56:20;97060.34;;;11.31
77414;BMP280;66486;49.992;19.164;2023-03-14T02:58:46;97054.72;;;11.20
77414;BMP280;66486;49.992;19.164;2023-03-14T03:01:12;97063.16;;;10.89
77414;BMP280;66486;49.992;19.164;2023-03-14T03:03:38;97058.13;;;10.49
77414;BMP280;66486;49.992;19.164;2023-03-14T03:06:04;97061.41;;;10.12
77414;BMP280;66486;49.992;19.164;2023-03-14T03:08:31;97070.53;;;9.87
77414;BMP280;66486;49.992;19.164;2023-03-14T03:10:57;97081.88;;;9.91
77414;BMP280;66486;49.992;19.164;2023-03-14T03:13:24;97094.75;;;9.51
77414;BMP280;66486;49.992;19.164;2023-03-14T03:15:51;97113.53;;;9.42
77414;BMP280;66486;49.992;19.164;2023-03-14T03:18:17;97107.66;;;9.16
77414;BMP280;66486;49.992;19.164;2023-03-14T03:20:43;97116.41;;;8.98
77414;BMP280;66486;49.992;19.164;2023-03-14T03:23:09;97126.91;;;8.74
77414;BMP280;66486;49.992;19.164;2023-03-14T03:25:35;97120.31;;;8.66
77414;BMP280;66486;49.992;19.164;2023-03-14T03:28:01;97117.19;;;8.68
77414;BMP280;66486;49.992;19.164;2023-03-14T03:30:27;97121.19;;;8.63
77414;BMP280;66486;49.992;19.164;2023-03-14T03:32:53;97121.81;;;8.37
77414;BMP280;66486;49.992;19.164;2023-03-14T03:35:19;97130.28;;;8.57
77414;BMP280;66486;49.992;19.164;2023-03-14T03:37:45;97126.28;;;8.70
77414;BMP280;66486;49.992;19.164;2023-03-14T03:40:12;97119.41;;;9.00
77414;BMP280;66486;49.992;19.164;2023-03-14T03:42:38;97115.25;;;9.08
77414;BMP280;66486;49.992;19.164;2023-03-14T03:45:05;97116.97;;;9.33
77414;BMP280;66486;49.992;19.164;2023-03-14T03:47:31;97115.75;;;9.43
77414;BMP280;66486;49.992;19.164;2023-03-14T03:49:57;97123.66;;;9.47
77414;BMP280;66486;49.992;19.164;2023-03-14T03:52:23;97121.63;;;9.60
77414;BMP280;66486;49.992;19.164;2023-03-14T03:54:49;97124.44;;;9.74
77414;BMP280;66486;49.992;19.164;2023-03-14T03:57:15;97131.16;;;9.70
77414;BMP280;66486;49.992;19.164;2023-03-14T03:59:41;97114.41;;;9.57
77414;BMP280;66486;49.992;19.164;2023-03-14T04:02:07;97112.34;;;9.52
77414;BMP280;66486;49.992;19.164;2023-03-14T04:04:33;97115.63;;;9.38
77414;BMP280;66486;49.992;19.164;2023-03-14T04:07:00;97119.47;;;9.36
77414;BMP280;66486;49.992;19.164;2023-03-14T04:09:25;97128.44;;;9.61
77414;BMP280;66486;49.992;19.164;2023-03-14T04:11:52;97133.78;;;9.24
77414;BMP280;66486;49.992;19.164;2023-03-14T04:14:17;97144.41;;;8.97
77414;BMP280;66486;49.992;19.164;2023-03-14T04:16:43;97144.94;;;9.14
77414;BMP280;66486;49.992;19.164;2023-03-14T04:19:09;97146.81;;;8.95
77414;BMP280;66486;49.992;19.164;2023-03-14T04:21:36;97147.31;;;8.81
77414;BMP280;66486;49.992;19.164;2023-03-14T04:24:02;97146.56;;;8.71
77414;BMP280;66486;49.992;19.164;2023-03-14T04:26:28;97148.78;;;8.73
77414;BMP280;66486;49.992;19.164;2023-03-14T04:28:54;97150.88;;;8.78
77414;BMP280;66486;49.992;19.164;2023-03-14T04:31:21;97153.16;;;8.89
77414;BMP280;66486;49.992;19.164;2023-03-14T04:33:47;97151.38;;;8.86
77414;BMP280;66486;49.992;19.164;2023-03-14T04:36:13;97151.47;;;8.73
77414;BMP280;66486;49.992;19.164;2023-03-14T04:38:40;97146.03;;;8.55
77414;BMP280;66486;49.992;19.164;2023-03-14T04:41:06;97160.88;;;8.47
77414;BMP280;66486;49.992;19.164;2023-03-14T04:43:33;97129.56;;;8.35
77414;BMP280;66486;49.992;19.164;2023-03-14T04:45:59;97130.66;;;8.46
77414;BMP280;66486;49.992;19.164;2023-03-14T04:48:26;97110.25;;;8.49
77414;BMP280;66486;49.992;19.164;2023-03-14T04:50:52;97103.13;;;8.46
77414;BMP280;66486;49.992;19.164;2023-03-14T04:53:19;97119.63;;;8.44
77414;BMP280;66486;49.992;19.164;2023-03-14T04:55:54;97113.56;;;8.53
77414;BMP280;66486;49.992;19.164;2023-03-14T04:58:21;97119.63;;;8.75
77414;BMP280;66486;49.992;19.164;2023-03-14T05:00:47;97128.09;;;8.73
77414;BMP280;66486;49.992;19.164;2023-03-14T05:03:17;97121.34;;;9.00
77414;BMP280;66486;49.992;19.164;2023-03-14T05:05:44;97112.56;;;9.08
77414;BMP280;66486;49.992;19.164;2023-03-14T05:08:10;97112.25;;;8.97
77414;BMP280;66486;49.992;19.164;2023-03-14T05:10:37;97127.31;;;9.04
77414;BMP280;66486;49.992;19.164;2023-03-14T05:13:03;97109.00;;;9.11
77414;BMP280;66486;49.992;19.164;2023-03-14T05:15:29;97105.47;;;9.32
77414;BMP280;66486;49.992;19.164;2023-03-14T05:17:55;97101.00;;;9.38
77414;BMP280;66486;49.992;19.164;2023-03-14T05:20:21;97096.38;;;9.39
77414;BMP280;66486;49.992;19.164;2023-03-14T05:22:47;97093.38;;;9.28
77414;BMP280;66486;49.992;19.164;2023-03-14T05:25:13;97075.66;;;9.12
77414;BMP280;66486;49.992;19.164;2023-03-14T05:27:39;97072.22;;;9.12
77414;BMP280;66486;49.992;19.164;2023-03-14T05:30:06;97073.09;;;9.18
77414;BMP280;66486;49.992;19.164;2023-03-14T05:32:32;97077.72;;;9.26
77414;BMP280;66486;49.992;19.164;2023-03-14T05:34:59;97080.56;;;9.32
77414;BMP280;66486;49.992;19.164;2023-03-14T05:37:26;97078.34;;;9.49
77414;BMP280;66486;49.992;19.164;2023-03-14T05:39:52;97068.94;;;9.35
77414;BMP280;66486;49.992;19.164;2023-03-14T05:42:18;97057.75;;;9.36
77414;BMP280;66486;49.992;19.164;2023-03-14T05:44:44;97057.75;;;9.36
77414;BMP280;66486;49.992;19.164;2023-03-14T05:47:11;97059.41;;;9.34
77414;BMP280;66486;49.992;19.164;2023-03-14T05:49:36;97045.97;;;9.43
77414;BMP280;66486;49.992;19.164;2023-03-14T05:52:03;97053.13;;;9.46
77414;BMP280;66486;49.992;19.164;2023-03-14T05:54:28;97048.22;;;9.54
77414;BMP280;66486;49.992;19.164;2023-03-14T05:56:55;97047.03;;;9.55
77414;BMP280;66486;49.992;19.164;2023-03-14T05:59:20;97054.03;;;9.70
77414;BMP280;66486;49.992;19.164;2023-03-14T06:01:47;97047.94;;;9.70
77414;BMP280;66486;49.992;19.164;2023-03-14T06:04:12;97053.25;;;9.79
77414;BMP280;66486;49.992;19.164;2023-03-14T06:06:39;97052.34;;;9.91
77414;BMP280;66486;49.992;19.164;2023-03-14T06:09:05;97063.94;;;10.06
77414;BMP280;66486;49.992;19.164;2023-03-14T06:11:31;97065.72;;;10.18
77414;BMP280;66486;49.992;19.164;2023-03-14T06:13:57;97063.28;;;10.29
77414;BMP280;66486;49.992;19.164;2023-03-14T06:16:23;97062.34;;;10.41
77414;BMP280;66486;49.992;19.164;2023-03-14T06:18:49;97066.34;;;10.46
77414;BMP280;66486;49.992;19.164;2023-03-14T06:21:15;97061.22;;;10.57
77414;BMP280;66486;49.992;19.164;2023-03-14T06:23:41;97049.53;;;10.69
77414;BMP280;66486;49.992;19.164;2023-03-14T06:26:07;97042.88;;;10.79
77414;BMP280;66486;49.992;19.164;2023-03-14T06:28:33;97029.97;;;10.69
77414;BMP280;66486;49.992;19.164;2023-03-14T06:31:00;97029.72;;;10.81
77414;BMP280;66486;49.992;19.164;2023-03-14T06:33:26;97029.84;;;10.87
77414;BMP280;66486;49.992;19.164;2023-03-14T06:35:52;97024.84;;;10.94
77414;BMP280;66486;49.992;19.164;2023-03-14T06:38:18;97031.22;;;11.06
77414;BMP280;66486;49.992;19.164;2023-03-14T06:40:44;97024.19;;;11.08
77414;BMP280;66486;49.992;19.164;2023-03-14T06:43:10;97022.97;;;11.09
77414;BMP280;66486;49.992;19.164;2023-03-14T06:45:36;97020.88;;;11.28
77414;BMP280;66486;49.992;19.164;2023-03-14T06:48:02;97016.44;;;11.40
77414;BMP280;66486;49.992;19.164;2023-03-14T06:50:28;97014.59;;;11.46
77414;BMP280;66486;49.992;19.164;2023-03-14T06:52:54;97022.00;;;11.51
77414;BMP280;66486;49.992;19.164;2023-03-14T06:55:20;97020.63;;;11.55
77414;BMP280;66486;49.992;19.164;2023-03-14T06:57:46;97023.69;;;11.63
77414;BMP280;66486;49.992;19.164;2023-03-14T07:00:13;97017.84;;;11.79
77414;BMP280;66486;49.992;19.164;2023-03-14T07:02:39;97021.84;;;11.83
77414;BMP280;66486;49.992;19.164;2023-03-14T07:05:06;97005.13;;;11.65
77414;BMP280;66486;49.992;19.164;2023-03-14T07:07:32;97005.03;;;11.74
77414;BMP280;66486;49.992;19.164;2023-03-14T07:09:58;97001.13;;;11.89
77414;BMP280;66486;49.992;19.164;2023-03-14T07:12:24;96994.81;;;12.13
77414;BMP280;66486;49.992;19.164;2023-03-14T07:14:50;96992.06;;;12.07
77414;BMP280;66486;49.992;19.164;2023-03-14T07:17:16;96987.63;;;12.04
77414;BMP280;66486;49.992;19.164;2023-03-14T07:19:42;96989.56;;;12.18
77414;BMP280;66486;49.992;19.164;2023-03-14T07:22:08;96998.16;;;12.37
77414;BMP280;66486;49.992;19.164;2023-03-14T07:24:34;97003.00;;;12.53
77414;BMP280;66486;49.992;19.164;2023-03-14T07:27:00;97008.22;;;12.77
77414;BMP280;66486;49.992;19.164;2023-03-14T07:29:26;97001.19;;;12.85
77414;BMP280;66486;49.992;19.164;2023-03-14T07:31:52;97019.44;;;12.75
77414;BMP280;66486;49.992;19.164;2023-03-14T07:34:18;97035.47;;;12.99
77414;BMP280;66486;49.992;19.164;2023-03-14T07:36:45;97049.94;;;13.01
77414;BMP280;66486;49.992;19.164;2023-03-14T07:39:11;97038.22;;;13.04
77414;BMP280;66486;49.992;19.164;2023-03-14T07:41:36;97042.75;;;13.13
77414;BMP280;66486;49.992;19.164;2023-03-14T07:44:03;97033.94;;;13.38
77414;BMP280;66486;49.992;19.164;2023-03-14T07:46:29;97038.25;;;13.30
77414;BMP280;66486;49.992;19.164;2023-03-14T07:48:55;97036.69;;;13.44
77414;BMP280;66486;49.992;19.164;2023-03-14T07:51:20;97041.53;;;13.40
77414;BMP280;66486;49.992;19.164;2023-03-14T07:53:47;97036.72;;;13.49
77414;BMP280;66486;49.992;19.164;2023-03-14T07:56:12;97047.63;;;13.60
77414;BMP280;66486;49.992;19.164;2023-03-14T07:58:38;97029.31;;;13.70
77414;BMP280;66486;49.992;19.164;2023-03-14T08:01:04;97047.53;;;13.75
77414;BMP280;66486;49.992;19.164;2023-03-14T08:03:31;97058.06;;;13.73
77414;BMP280;66486;49.992;19.164;2023-03-14T08:05:57;97041.44;;;13.80
77414;BMP280;66486;49.992;19.164;2023-03-14T08:08:23;97045.34;;;13.79
77414;BMP280;66486;49.992;19.164;2023-03-14T08:10:49;97048.78;;;13.79
77414;BMP280;66486;49.992;19.164;2023-03-14T08:13:15;97043.97;;;13.89
77414;BMP280;66486;49.992;19.164;2023-03-14T08:15:41;97037.03;;;13.82
77414;BMP280;66486;49.992;19.164;2023-03-14T08:18:07;97033.16;;;13.89
77414;BMP280;66486;49.992;19.164;2023-03-14T08:20:33;97034.25;;;14.08
77414;BMP280;66486;49.992;19.164;2023-03-14T08:23:01;97015.81;;;14.07
77414;BMP280;66486;49.992;19.164;2023-03-14T08:25:27;97032.91;;;13.92
77414;BMP280;66486;49.992;19.164;2023-03-14T08:27:53;97030.28;;;14.03
77414;BMP280;66486;49.992;19.164;2023-03-14T08:30:21;97027.25;;;13.90
77414;BMP280;66486;49.992;19.164;2023-03-14T08:32:48;97026.47;;;13.84
77414;BMP280;66486;49.992;19.164;2023-03-14T08:35:14;97026.50;;;13.90
77414;BMP280;66486;49.992;19.164;2023-03-14T08:37:40;97033.88;;;13.89
77414;BMP280;66486;49.992;19.164;2023-03-14T08:40:07;97032.25;;;14.03
77414;BMP280;66486;49.992;19.164;2023-03-14T08:42:36;97045.63;;;14.18
77414;BMP280;66486;49.992;19.164;2023-03-14T08:45:03;97042.75;;;14.27
77414;BMP280;66486;49.992;19.164;2023-03-14T08:47:30;97061.16;;;14.23
77414;BMP280;66486;49.992;19.164;2023-03-14T08:49:56;97044.16;;;14.17
77414;BMP280;66486;49.992;19.164;2023-03-14T08:52:22;97052.66;;;14.04
77414;BMP280;66486;49.992;19.164;2023-03-14T08:54:48;97057.41;;;14.15
77414;BMP280;66486;49.992;19.164;2023-03-14T08:57:14;97057.00;;;14.27
77414;BMP280;66486;49.992;19.164;2023-03-14T08:59:40;97058.38;;;14.06
77414;BMP280;66486;49.992;19.164;2023-03-14T09:02:09;97064.75;;;14.09
77414;BMP280;66486;49.992;19.164;2023-03-14T09:04:36;97067.41;;;14.03
77414;BMP280;66486;49.992;19.164;2023-03-14T09:07:02;97076.47;;;14.00
77414;BMP280;66486;49.992;19.164;2023-03-14T09:09:28;97071.66;;;14.10
77414;BMP280;66486;49.992;19.164;2023-03-14T09:11:56;97069.31;;;14.28
77414;BMP280;66486;49.992;19.164;2023-03-14T09:14:23;97084.00;;;14.22
77414;BMP280;66486;49.992;19.164;2023-03-14T09:16:49;97090.97;;;14.28
77414;BMP280;66486;49.992;19.164;2023-03-14T09:19:16;97092.00;;;14.36
77414;BMP280;66486;49.992;19.164;2023-03-14T09:21:42;97089.56;;;14.44
77414;BMP280;66486;49.992;19.164;2023-03-14T09:24:08;97077.75;;;14.41
77414;BMP280;66486;49.992;19.164;2023-03-14T09:26:34;97081.44;;;14.38
77414;BMP280;66486;49.992;19.164;2023-03-14T09:29:00;97076.00;;;14.38
77414;BMP280;66486;49.992;19.164;2023-03-14T09:31:26;97076.69;;;14.70
77414;BMP280;66486;49.992;19.164;2023-03-14T09:33:53;97081.41;;;14.81
77414;BMP280;66486;49.992;19.164;2023-03-14T09:36:19;97077.53;;;14.98
77414;BMP280;66486;49.992;19.164;2023-03-14T09:38:45;97084.50;;;15.05
77414;BMP280;66486;49.992;19.164;2023-03-14T09:41:38;97088.16;;;15.13
77414;BMP280;66486;49.992;19.164;2023-03-14T09:44:14;97086.69;;;15.06
77414;BMP280;66486;49.992;19.164;2023-03-14T09:46:44;97093.38;;;15.16
77414;BMP280;66486;49.992;19.164;2023-03-14T09:49:27;97092.69;;;15.32
77414;BMP280;66486;49.992;19.164;2023-03-14T09:51:56;97103.56;;;15.55
77414;BMP280;66486;49.992;19.164;2023-03-14T09:54:37;97082.13;;;15.62
77414;BMP280;66486;49.992;19.164;2023-03-14T09:57:08;97080.91;;;15.58
77414;BMP280;66486;49.992;19.164;2023-03-14T09:59:37;97092.47;;;15.47
77414;BMP280;66486;49.992;19.164;2023-03-14T10:02:24;97106.50;;;15.45
77414;BMP280;66486;49.992;19.164;2023-03-14T10:04:52;97106.25;;;15.43
77414;BMP280;66486;49.992;19.164;2023-03-14T10:07:28;97121.53;;;15.41
77414;BMP280;66486;49.992;19.164;2023-03-14T10:09:55;97110.69;;;15.41
77414;BMP280;66486;49.992;19.164;2023-03-14T10:12:31;97128.66;;;15.38
77414;BMP280;66486;49.992;19.164;2023-03-14T10:15:12;97136.28;;;15.34
77414;BMP280;66486;49.992;19.164;2023-03-14T10:17:42;97125.94;;;15.33
77414;BMP280;66486;49.992;19.164;2023-03-14T10:20:33;97132.53;;;15.21
77414;BMP280;66486;49.992;19.164;2023-03-14T10:23:24;97139.97;;;15.26
77414;BMP280;66486;49.992;19.164;2023-03-14T10:26:11;97133.00;;;15.14
77414;BMP280;66486;49.992;19.164;2023-03-14T10:28:46;97122.91;;;15.14
77414;BMP280;66486;49.992;19.164;2023-03-14T10:31:14;97122.13;;;14.97
77414;BMP280;66486;49.992;19.164;2023-03-14T10:33:41;97127.50;;;14.92
77414;BMP280;66486;49.992;19.164;2023-03-14T10:36:32;97114.19;;;14.83
77414;BMP280;66486;49.992;19.164;2023-03-14T10:39:24;97106.47;;;14.70
77414;BMP280;66486;49.992;19.164;2023-03-14T10:42:04;97111.22;;;14.86
77414;BMP280;66486;49.992;19.164;2023-03-14T10:44:31;97108.41;;;14.64
77414;BMP280;66486;49.992;19.164;2023-03-14T10:47:03;97111.81;;;14.53
77414;BMP280;66486;49.992;19.164;2023-03-14T10:49:36;97103.81;;;14.39
77414;BMP280;66486;49.992;19.164;2023-03-14T10:54:34;97092.00;;;14.36
77414;BMP280;66486;49.992;19.164;2023-03-14T10:57:01;97086.59;;;14.36
77414;BMP280;66486;49.992;19.164;2023-03-14T10:59:41;97079.88;;;14.26
77414;BMP280;66486;49.992;19.164;2023-03-14T11:05:25;97090.09;;;14.11
77414;BMP280;66486;49.992;19.164;2023-03-14T11:07:55;97091.53;;;14.07
77414;BMP280;66486;49.992;19.164;2023-03-14T11:10:34;97085.19;;;14.15
77414;BMP280;66486;49.992;19.164;2023-03-14T11:13:17;97091.81;;;14.14
77414;BMP280;66486;49.992;19.164;2023-03-14T11:16:05;97088.34;;;14.08
77414;BMP280;66486;49.992;19.164;2023-03-14T11:21:41;97100.16;;;14.11
77414;BMP280;66486;49.992;19.164;2023-03-14T11:27:25;97089.16;;;14.20
77414;BMP280;66486;49.992;19.164;2023-03-14T11:30:05;97089.16;;;14.20
77414;BMP280;66486;49.992;19.164;2023-03-14T11:38:13;97085.56;;;14.34
77414;BMP280;66486;49.992;19.164;2023-03-14T11:40:40;97105.78;;;14.44
77414;BMP280;66486;49.992;19.164;2023-03-14T11:44:13;97102.69;;;14.56
77414;BMP280;66486;49.992;19.164;2023-03-14T11:46:25;97095.88;;;14.61
77414;BMP280;66486;49.992;19.164;2023-03-14T11:51:59;97107.09;;;14.48
77414;BMP280;66486;49.992;19.164;2023-03-14T11:54:34;97106.16;;;14.62
77414;BMP280;66486;49.992;19.164;2023-03-14T11:57:12;97108.56;;;14.55
77414;BMP280;66486;49.992;19.164;2023-03-14T12:00:13;97103.06;;;14.38
77414;BMP280;66486;49.992;19.164;2023-03-14T12:10:56;97086.72;;;14.58
77414;BMP280;66486;49.992;19.164;2023-03-14T12:13:28;97093.69;;;14.70
77414;BMP280;66486;49.992;19.164;2023-03-14T12:16:00;97098.03;;;14.57
77414;BMP280;66486;49.992;19.164;2023-03-14T12:18:39;97078.34;;;14.62
77414;BMP280;66486;49.992;19.164;2023-03-14T12:21:09;97082.78;;;14.54
77414;BMP280;66486;49.992;19.164;2023-03-14T12:23:45;97092.06;;;14.47
77414;BMP280;66486;49.992;19.164;2023-03-14T12:26:25;97087.53;;;14.33
77414;BMP280;66486;49.992;19.164;2023-03-14T12:29:11;97083.50;;;14.18
77414;BMP280;66486;49.992;19.164;2023-03-14T12:31:44;97087.75;;;14.24
77414;BMP280;66486;49.992;19.164;2023-03-14T12:37:14;97089.84;;;14.15
77414;BMP280;66486;49.992;19.164;2023-03-14T12:39:45;97079.19;;;14.00
77414;BMP280;66486;49.992;19.164;2023-03-14T12:44:49;97087.72;;;13.93
77414;BMP280;66486;49.992;19.164;2023-03-14T12:49:47;97085.19;;;13.84
77414;BMP280;66486;49.992;19.164;2023-03-14T12:52:17;97079.53;;;13.82
77414;BMP280;66486;49.992;19.164;2023-03-14T12:57:45;97093.53;;;13.55
77414;BMP280;66486;49.992;19.164;2023-03-14T13:00:21;97090.81;;;13.55
77414;BMP280;66486;49.992;19.164;2023-03-14T13:02:49;97096.66;;;13.48
77414;BMP280;66486;49.992;19.164;2023-03-14T13:05:21;97094.97;;;13.10
77414;BMP280;66486;49.992;19.164;2023-03-14T13:10:23;97084.72;;;13.14
77414;BMP280;66486;49.992;19.164;2023-03-14T13:15:33;97092.91;;;12.99
77414;BMP280;66486;49.992;19.164;2023-03-14T13:18:10;97105.84;;;12.95
77414;BMP280;66486;49.992;19.164;2023-03-14T13:20:40;97102.59;;;12.91
77414;BMP280;66486;49.992;19.164;2023-03-14T13:23:20;97107.94;;;12.86
77414;BMP280;66486;49.992;19.164;2023-03-14T13:25:46;97113.44;;;12.77
77414;BMP280;66486;49.992;19.164;2023-03-14T13:28:14;97104.31;;;12.74
77414;BMP280;66486;49.992;19.164;2023-03-14T13:30:43;97104.59;;;12.76
77414;BMP280;66486;49.992;19.164;2023-03-14T13:33:20;97111.41;;;12.72
77414;BMP280;66486;49.992;19.164;2023-03-14T13:35:48;97110.00;;;12.76
77414;BMP280;66486;49.992;19.164;2023-03-14T13:38:20;97122.56;;;12.79
77414;BMP280;66486;49.992;19.164;2023-03-14T13:40:48;97122.59;;;12.64
77414;BMP280;66486;49.992;19.164;2023-03-14T13:43:28;97117.22;;;12.50
77414;BMP280;66486;49.992;19.164;2023-03-14T13:46:16;97126.16;;;12.56
77414;BMP280;66486;49.992;19.164;2023-03-14T13:48:49;97129.06;;;12.52
77414;BMP280;66486;49.992;19.164;2023-03-14T13:51:20;97141.78;;;12.52
77414;BMP280;66486;49.992;19.164;2023-03-14T13:53:49;97143.63;;;12.46
77414;BMP280;66486;49.992;19.164;2023-03-14T13:56:17;97140.47;;;12.47
77414;BMP280;66486;49.992;19.164;2023-03-14T13:58:43;97138.88;;;12.55
77414;BMP280;66486;49.992;19.164;2023-03-14T14:01:30;97139.53;;;12.50
77414;BMP280;66486;49.992;19.164;2023-03-14T14:04:05;97130.25;;;12.37
77414;BMP280;66486;49.992;19.164;2023-03-14T14:06:35;97141.50;;;12.35
77414;BMP280;66486;49.992;19.164;2023-03-14T14:09:14;97148.22;;;12.25
77414;BMP280;66486;49.992;19.164;2023-03-14T14:14:27;97134.25;;;12.27
77414;BMP280;66486;49.992;19.164;2023-03-14T14:16:57;97143.00;;;12.22
77414;BMP280;66486;49.992;19.164;2023-03-14T14:19:27;97141.59;;;12.26
77414;BMP280;66486;49.992;19.164;2023-03-14T14:21:54;97143.56;;;12.26
77414;BMP280;66486;49.992;19.164;2023-03-14T14:24:23;97138.19;;;12.11
77414;BMP280;66486;49.992;19.164;2023-03-14T14:26:54;97145.63;;;12.16
77414;BMP280;66486;49.992;19.164;2023-03-14T14:29:30;97141.25;;;12.19
77414;BMP280;66486;49.992;19.164;2023-03-14T14:32:12;97137.88;;;12.24
77414;BMP280;66486;49.992;19.164;2023-03-14T14:34:58;97144.13;;;12.15
77414;BMP280;66486;49.992;19.164;2023-03-14T14:37:26;97138.06;;;12.06
77414;BMP280;66486;49.992;19.164;2023-03-14T14:39:56;97136.97;;;11.98
77414;BMP280;66486;49.992;19.164;2023-03-14T14:42:26;97139.16;;;11.99
77414;BMP280;66486;49.992;19.164;2023-03-14T14:44:53;97144.50;;;12.08
77414;BMP280;66486;49.992;19.164;2023-03-14T14:47:21;97139.09;;;11.93
77414;BMP280;66486;49.992;19.164;2023-03-14T14:49:49;97127.63;;;11.84
77414;BMP280;66486;49.992;19.164;2023-03-14T14:52:22;97136.75;;;11.86
77414;BMP280;66486;49.992;19.164;2023-03-14T14:55:00;97141.28;;;11.80
77414;BMP280;66486;49.992;19.164;2023-03-14T14:57:31;97146.03;;;11.71
77414;BMP280;66486;49.992;19.164;2023-03-14T15:00:16;97147.72;;;11.68
77414;BMP280;66486;49.992;19.164;2023-03-14T15:02:48;97133.94;;;11.66
77414;BMP280;66486;49.992;19.164;2023-03-14T15:05:17;97128.84;;;11.68
77414;BMP280;66486;49.992;19.164;2023-03-14T15:07:43;97124.47;;;11.71